sensor_id;sensor_type;location;lat;lon;timestamp;P1;durP1;ratioP1;P2;durP2;ratioP2
70800;SDS011;59616;52.170;5.386;2023-03-05T00:01:37;7.50;;;1.80;;
70800;SDS011;59616;52.170;5.386;2023-03-05T00:04:06;6.10;;;1.50;;
70800;SDS011;59616;52.170;5.386;2023-03-05T00:06:33;12.02;;;1.63;;
70800;SDS011;59616;52.170;5.386;2023-03-05T00:09:01;7.00;;;1.40;;
70800;SDS011;59616;52.170;5.386;2023-03-05T00:11:28;9.23;;;1.70;;
70800;SDS011;59616;52.170;5.386;2023-03-05T00:13:56;6.55;;;1.45;;
70800;SDS011;59616;52.170;5.386;2023-03-05T00:16:24;12.10;;;1.50;;
70800;SDS011;59616;52.170;5.386;2023-03-05T00:18:52;5.28;;;1.25;;
70800;SDS011;59616;52.170;5.386;2023-03-05T00:23:46;8.60;;;1.77;;
70800;SDS011;59616;52.170;5.386;2023-03-05T00:26:19;6.13;;;1.77;;
70800;SDS011;59616;52.170;5.386;2023-03-05T00:28:47;7.05;;;1.80;;
70800;SDS011;59616;52.170;5.386;2023-03-05T00:31:15;12.77;;;2.08;;
70800;SDS011;59616;52.170;5.386;2023-03-05T00:33:43;8.25;;;1.95;;
70800;SDS011;59616;52.170;5.386;2023-03-05T00:36:10;7.57;;;1.40;;
70800;SDS011;59616;52.170;5.386;2023-03-05T00:38:38;10.10;;;1.95;;
70800;SDS011;59616;52.170;5.386;2023-03-05T00:43:32;11.77;;;2.10;;
70800;SDS011;59616;52.170;5.386;2023-03-05T00:45:59;9.35;;;2.10;;
70800;SDS011;59616;52.170;5.386;2023-03-05T00:48:26;8.52;;;1.95;;
70800;SDS011;59616;52.170;5.386;2023-03-05T00:50:54;9.15;;;2.08;;
70800;SDS011;59616;52.170;5.386;2023-03-05T00:53:21;12.63;;;2.03;;
70800;SDS011;59616;52.170;5.386;2023-03-05T00:55:49;7.90;;;1.95;;
70800;SDS011;59616;52.170;5.386;2023-03-05T00:58:16;6.35;;;1.50;;
70800;SDS011;59616;52.170;5.386;2023-03-05T01:00:43;12.98;;;2.28;;
70800;SDS011;59616;52.170;5.386;2023-03-05T01:03:11;9.80;;;1.73;;
70800;SDS011;59616;52.170;5.386;2023-03-05T01:05:38;7.47;;;1.73;;
70800;SDS011;59616;52.170;5.386;2023-03-05T01:08:05;8.75;;;1.80;;
70800;SDS011;59616;52.170;5.386;2023-03-05T01:10:32;10.40;;;1.85;;
70800;SDS011;59616;52.170;5.386;2023-03-05T01:12:59;6.95;;;1.83;;
70800;SDS011;59616;52.170;5.386;2023-03-05T01:15:27;8.90;;;2.20;;
70800;SDS011;59616;52.170;5.386;2023-03-05T01:17:54;8.05;;;1.98;;
70800;SDS011;59616;52.170;5.386;2023-03-05T01:20:21;10.90;;;2.28;;
70800;SDS011;59616;52.170;5.386;2023-03-05T01:22:49;7.63;;;1.92;;
70800;SDS011;59616;52.170;5.386;2023-03-05T01:25:16;9.93;;;2.42;;
70800;SDS011;59616;52.170;5.386;2023-03-05T01:27:43;10.52;;;2.08;;
70800;SDS011;59616;52.170;5.386;2023-03-05T01:30:11;11.50;;;2.22;;
70800;SDS011;59616;52.170;5.386;2023-03-05T01:32:39;12.55;;;2.03;;
70800;SDS011;59616;52.170;5.386;2023-03-05T01:35:07;6.75;;;1.92;;
70800;SDS011;59616;52.170;5.386;2023-03-05T01:37:34;9.77;;;2.25;;
70800;SDS011;59616;52.170;5.386;2023-03-05T01:40:01;6.38;;;1.75;;
70800;SDS011;59616;52.170;5.386;2023-03-05T01:42:28;9.88;;;2.03;;
70800;SDS011;59616;52.170;5.386;2023-03-05T01:45:00;9.13;;;2.25;;
70800;SDS011;59616;52.170;5.386;2023-03-05T01:47:28;8.38;;;1.85;;
70800;SDS011;59616;52.170;5.386;2023-03-05T01:49:55;11.48;;;1.85;;
70800;SDS011;59616;52.170;5.386;2023-03-05T01:52:22;6.57;;;2.25;;
70800;SDS011;59616;52.170;5.386;2023-03-05T01:55:33;10.25;;;2.10;;
70800;SDS011;59616;52.170;5.386;2023-03-05T01:57:42;6.95;;;2.10;;
70800;SDS011;59616;52.170;5.386;2023-03-05T02:00:14;9.23;;;2.10;;
70800;SDS011;59616;52.170;5.386;2023-03-05T02:02:46;11.25;;;2.20;;
70800;SDS011;59616;52.170;5.386;2023-03-05T02:05:22;11.43;;;2.10;;
70800;SDS011;59616;52.170;5.386;2023-03-05T02:07:59;8.00;;;2.20;;
70800;SDS011;59616;52.170;5.386;2023-03-05T02:10:27;7.95;;;2.50;;
70800;SDS011;59616;52.170;5.386;2023-03-05T02:12:56;11.25;;;2.40;;
70800;SDS011;59616;52.170;5.386;2023-03-05T02:15:25;8.05;;;2.28;;
70800;SDS011;59616;52.170;5.386;2023-03-05T02:17:52;8.55;;;2.33;;
70800;SDS011;59616;52.170;5.386;2023-03-05T02:20:20;7.03;;;2.38;;
70800;SDS011;59616;52.170;5.386;2023-03-05T02:22:48;17.17;;;2.63;;
70800;SDS011;59616;52.170;5.386;2023-03-05T02:25:20;9.13;;;2.33;;
70800;SDS011;59616;52.170;5.386;2023-03-05T02:28:08;14.20;;;2.70;;
70800;SDS011;59616;52.170;5.386;2023-03-05T02:30:38;11.48;;;2.40;;
70800;SDS011;59616;52.170;5.386;2023-03-05T02:33:05;11.98;;;2.60;;
70800;SDS011;59616;52.170;5.386;2023-03-05T02:35:32;10.55;;;2.83;;
70800;SDS011;59616;52.170;5.386;2023-03-05T02:38:01;9.70;;;2.40;;
70800;SDS011;59616;52.170;5.386;2023-03-05T02:40:28;12.25;;;2.50;;
70800;SDS011;59616;52.170;5.386;2023-03-05T02:42:55;11.93;;;2.67;;
70800;SDS011;59616;52.170;5.386;2023-03-05T02:45:23;8.18;;;2.33;;
70800;SDS011;59616;52.170;5.386;2023-03-05T02:47:50;13.02;;;2.65;;
70800;SDS011;59616;52.170;5.386;2023-03-05T02:50:17;8.15;;;2.10;;
70800;SDS011;59616;52.170;5.386;2023-03-05T02:52:44;8.00;;;2.05;;
70800;SDS011;59616;52.170;5.386;2023-03-05T02:55:14;8.20;;;1.98;;
70800;SDS011;59616;52.170;5.386;2023-03-05T02:57:42;12.57;;;2.28;;
70800;SDS011;59616;52.170;5.386;2023-03-05T03:00:09;11.00;;;2.22;;
70800;SDS011;59616;52.170;5.386;2023-03-05T03:02:37;8.15;;;2.05;;
70800;SDS011;59616;52.170;5.386;2023-03-05T03:05:04;10.40;;;2.22;;
70800;SDS011;59616;52.170;5.386;2023-03-05T03:07:31;9.43;;;2.00;;
70800;SDS011;59616;52.170;5.386;2023-03-05T03:10:01;8.52;;;2.25;;
70800;SDS011;59616;52.170;5.386;2023-03-05T03:12:28;7.47;;;2.20;;
70800;SDS011;59616;52.170;5.386;2023-03-05T03:14:55;8.40;;;2.00;;
70800;SDS011;59616;52.170;5.386;2023-03-05T03:17:23;6.90;;;1.60;;
70800;SDS011;59616;52.170;5.386;2023-03-05T03:19:50;10.82;;;2.25;;
70800;SDS011;59616;52.170;5.386;2023-03-05T03:22:17;8.57;;;2.17;;
70800;SDS011;59616;52.170;5.386;2023-03-05T03:24:44;8.13;;;1.77;;
70800;SDS011;59616;52.170;5.386;2023-03-05T03:27:11;5.68;;;1.92;;
70800;SDS011;59616;52.170;5.386;2023-03-05T03:32:05;8.55;;;1.90;;
70800;SDS011;59616;52.170;5.386;2023-03-05T03:34:33;6.97;;;1.88;;
70800;SDS011;59616;52.170;5.386;2023-03-05T03:39:27;8.82;;;1.83;;
70800;SDS011;59616;52.170;5.386;2023-03-05T03:41:54;8.77;;;1.45;;
70800;SDS011;59616;52.170;5.386;2023-03-05T03:44:21;7.72;;;1.70;;
70800;SDS011;59616;52.170;5.386;2023-03-05T03:46:49;5.93;;;1.38;;
70800;SDS011;59616;52.170;5.386;2023-03-05T03:49:17;8.68;;;1.75;;
70800;SDS011;59616;52.170;5.386;2023-03-05T03:51:45;10.10;;;2.17;;
70800;SDS011;59616;52.170;5.386;2023-03-05T03:54:13;5.47;;;1.50;;
70800;SDS011;59616;52.170;5.386;2023-03-05T03:56:40;9.02;;;1.48;;
70800;SDS011;59616;52.170;5.386;2023-03-05T03:59:07;5.68;;;1.50;;
70800;SDS011;59616;52.170;5.386;2023-03-05T04:01:35;9.18;;;1.80;;
70800;SDS011;59616;52.170;5.386;2023-03-05T04:06:29;5.25;;;1.65;;
70800;SDS011;59616;52.170;5.386;2023-03-05T04:08:57;6.35;;;1.38;;
70800;SDS011;59616;52.170;5.386;2023-03-05T04:11:24;5.13;;;1.55;;
70800;SDS011;59616;52.170;5.386;2023-03-05T04:13:51;8.18;;;1.30;;
70800;SDS011;59616;52.170;5.386;2023-03-05T04:16:19;3.63;;;1.30;;
70800;SDS011;59616;52.170;5.386;2023-03-05T04:18:46;8.73;;;1.50;;
70800;SDS011;59616;52.170;5.386;2023-03-05T04:21:13;4.68;;;1.33;;
70800;SDS011;59616;52.170;5.386;2023-03-05T04:23:40;6.53;;;1.30;;
70800;SDS011;59616;52.170;5.386;2023-03-05T04:28:34;6.03;;;1.30;;
70800;SDS011;59616;52.170;5.386;2023-03-05T04:31:02;7.22;;;1.27;;
70800;SDS011;59616;52.170;5.386;2023-03-05T04:33:29;7.10;;;1.50;;
70800;SDS011;59616;52.170;5.386;2023-03-05T04:35:56;9.43;;;1.92;;
70800;SDS011;59616;52.170;5.386;2023-03-05T04:38:23;4.28;;;1.35;;
70800;SDS011;59616;52.170;5.386;2023-03-05T04:40:51;5.22;;;1.23;;
70800;SDS011;59616;52.170;5.386;2023-03-05T04:43:18;5.03;;;1.30;;
70800;SDS011;59616;52.170;5.386;2023-03-05T04:45:45;5.28;;;1.30;;
70800;SDS011;59616;52.170;5.386;2023-03-05T04:48:12;7.45;;;1.25;;
70800;SDS011;59616;52.170;5.386;2023-03-05T04:50:39;7.88;;;1.50;;
70800;SDS011;59616;52.170;5.386;2023-03-05T04:53:06;5.18;;;1.33;;
70800;SDS011;59616;52.170;5.386;2023-03-05T04:55:33;5.80;;;1.15;;
70800;SDS011;59616;52.170;5.386;2023-03-05T05:00:27;3.85;;;1.10;;
70800;SDS011;59616;52.170;5.386;2023-03-05T05:02:55;5.68;;;1.02;;
70800;SDS011;59616;52.170;5.386;2023-03-05T05:05:24;6.10;;;1.02;;
70800;SDS011;59616;52.170;5.386;2023-03-05T05:07:54;6.88;;;1.30;;
70800;SDS011;59616;52.170;5.386;2023-03-05T05:10:22;5.55;;;1.60;;
70800;SDS011;59616;52.170;5.386;2023-03-05T05:12:50;2.58;;;1.02;;
70800;SDS011;59616;52.170;5.386;2023-03-05T05:15:17;7.00;;;1.30;;
70800;SDS011;59616;52.170;5.386;2023-03-05T05:17:44;7.68;;;1.30;;
70800;SDS011;59616;52.170;5.386;2023-03-05T05:20:12;6.13;;;0.85;;
70800;SDS011;59616;52.170;5.386;2023-03-05T05:22:39;3.08;;;1.10;;
70800;SDS011;59616;52.170;5.386;2023-03-05T05:25:07;5.82;;;1.20;;
70800;SDS011;59616;52.170;5.386;2023-03-05T05:27:36;5.07;;;1.08;;
70800;SDS011;59616;52.170;5.386;2023-03-05T05:30:03;2.58;;;1.25;;
70800;SDS011;59616;52.170;5.386;2023-03-05T05:32:31;10.05;;;1.55;;
70800;SDS011;59616;52.170;5.386;2023-03-05T05:34:58;4.00;;;1.08;;
70800;SDS011;59616;52.170;5.386;2023-03-05T05:37:25;4.53;;;1.30;;
70800;SDS011;59616;52.170;5.386;2023-03-05T05:39:52;6.40;;;1.20;;
70800;SDS011;59616;52.170;5.386;2023-03-05T05:42:20;4.47;;;1.20;;
70800;SDS011;59616;52.170;5.386;2023-03-05T05:44:48;9.35;;;1.50;;
70800;SDS011;59616;52.170;5.386;2023-03-05T05:47:15;4.18;;;1.40;;
70800;SDS011;59616;52.170;5.386;2023-03-05T05:49:43;5.22;;;1.13;;
70800;SDS011;59616;52.170;5.386;2023-03-05T05:52:10;5.28;;;1.20;;
70800;SDS011;59616;52.170;5.386;2023-03-05T05:54:38;5.25;;;1.30;;
70800;SDS011;59616;52.170;5.386;2023-03-05T05:57:05;7.35;;;1.30;;
70800;SDS011;59616;52.170;5.386;2023-03-05T05:59:32;6.70;;;1.52;;
70800;SDS011;59616;52.170;5.386;2023-03-05T06:02:00;6.45;;;1.35;;
70800;SDS011;59616;52.170;5.386;2023-03-05T06:04:27;4.95;;;1.10;;
70800;SDS011;59616;52.170;5.386;2023-03-05T06:06:54;6.13;;;1.48;;
70800;SDS011;59616;52.170;5.386;2023-03-05T06:09:21;5.63;;;1.30;;
70800;SDS011;59616;52.170;5.386;2023-03-05T06:14:15;3.55;;;1.17;;
70800;SDS011;59616;52.170;5.386;2023-03-05T06:16:42;8.52;;;1.33;;
70800;SDS011;59616;52.170;5.386;2023-03-05T06:19:13;5.97;;;1.42;;
70800;SDS011;59616;52.170;5.386;2023-03-05T06:21:40;3.80;;;1.20;;
70800;SDS011;59616;52.170;5.386;2023-03-05T06:24:10;6.47;;;1.50;;
70800;SDS011;59616;52.170;5.386;2023-03-05T06:26:38;5.95;;;1.27;;
70800;SDS011;59616;52.170;5.386;2023-03-05T06:29:06;6.65;;;1.38;;
70800;SDS011;59616;52.170;5.386;2023-03-05T06:31:33;4.88;;;1.20;;
70800;SDS011;59616;52.170;5.386;2023-03-05T06:34:02;10.43;;;1.45;;
70800;SDS011;59616;52.170;5.386;2023-03-05T06:36:29;7.40;;;1.60;;
70800;SDS011;59616;52.170;5.386;2023-03-05T06:38:57;6.53;;;1.50;;
70800;SDS011;59616;52.170;5.386;2023-03-05T06:41:27;4.85;;;1.33;;
70800;SDS011;59616;52.170;5.386;2023-03-05T06:43:55;4.18;;;1.20;;
70800;SDS011;59616;52.170;5.386;2023-03-05T06:46:23;4.70;;;1.50;;
70800;SDS011;59616;52.170;5.386;2023-03-05T06:48:51;10.57;;;1.60;;
70800;SDS011;59616;52.170;5.386;2023-03-05T06:51:20;7.80;;;1.70;;
70800;SDS011;59616;52.170;5.386;2023-03-05T06:53:47;5.15;;;1.60;;
70800;SDS011;59616;52.170;5.386;2023-03-05T06:56:15;7.43;;;1.35;;
70800;SDS011;59616;52.170;5.386;2023-03-05T06:58:43;5.28;;;1.50;;
70800;SDS011;59616;52.170;5.386;2023-03-05T07:01:12;9.80;;;1.80;;
70800;SDS011;59616;52.170;5.386;2023-03-05T07:03:39;4.72;;;1.40;;
70800;SDS011;59616;52.170;5.386;2023-03-05T07:06:11;5.25;;;1.30;;
70800;SDS011;59616;52.170;5.386;2023-03-05T07:08:38;6.07;;;1.40;;
70800;SDS011;59616;52.170;5.386;2023-03-05T07:11:12;5.97;;;1.40;;
70800;SDS011;59616;52.170;5.386;2023-03-05T07:13:40;5.93;;;1.42;;
70800;SDS011;59616;52.170;5.386;2023-03-05T07:16:09;7.63;;;1.27;;
70800;SDS011;59616;52.170;5.386;2023-03-05T07:18:36;5.03;;;1.20;;
70800;SDS011;59616;52.170;5.386;2023-03-05T07:21:04;4.57;;;1.27;;
70800;SDS011;59616;52.170;5.386;2023-03-05T07:23:32;5.43;;;1.35;;
70800;SDS011;59616;52.170;5.386;2023-03-05T07:26:03;6.65;;;1.02;;
70800;SDS011;59616;52.170;5.386;2023-03-05T07:28:31;2.40;;;0.90;;
70800;SDS011;59616;52.170;5.386;2023-03-05T07:31:03;3.80;;;1.02;;
70800;SDS011;59616;52.170;5.386;2023-03-05T07:33:30;4.30;;;0.93;;
70800;SDS011;59616;52.170;5.386;2023-03-05T07:35:58;2.65;;;1.25;;
70800;SDS011;59616;52.170;5.386;2023-03-05T07:38:26;6.65;;;0.90;;
70800;SDS011;59616;52.170;5.386;2023-03-05T07:40:53;3.42;;;1.08;;
70800;SDS011;59616;52.170;5.386;2023-03-05T07:43:20;4.55;;;0.90;;
70800;SDS011;59616;52.170;5.386;2023-03-05T07:45:48;5.22;;;1.00;;
70800;SDS011;59616;52.170;5.386;2023-03-05T07:48:16;2.78;;;0.80;;
70800;SDS011;59616;52.170;5.386;2023-03-05T07:50:46;4.60;;;1.10;;
70800;SDS011;59616;52.170;5.386;2023-03-05T07:53:13;3.95;;;0.95;;
70800;SDS011;59616;52.170;5.386;2023-03-05T07:55:44;8.43;;;1.33;;
70800;SDS011;59616;52.170;5.386;2023-03-05T07:58:12;7.30;;;1.20;;
70800;SDS011;59616;52.170;5.386;2023-03-05T08:00:39;5.03;;;1.00;;
70800;SDS011;59616;52.170;5.386;2023-03-05T08:03:06;4.47;;;1.40;;
70800;SDS011;59616;52.170;5.386;2023-03-05T08:05:34;5.40;;;1.40;;
70800;SDS011;59616;52.170;5.386;2023-03-05T08:08:05;3.88;;;0.93;;
70800;SDS011;59616;52.170;5.386;2023-03-05T08:10:32;5.10;;;1.10;;
70800;SDS011;59616;52.170;5.386;2023-03-05T08:13:00;3.42;;;0.85;;
70800;SDS011;59616;52.170;5.386;2023-03-05T08:15:27;3.33;;;0.80;;
70800;SDS011;59616;52.170;5.386;2023-03-05T08:17:56;2.25;;;0.85;;
70800;SDS011;59616;52.170;5.386;2023-03-05T08:20:23;5.13;;;1.05;;
70800;SDS011;59616;52.170;5.386;2023-03-05T08:22:50;4.18;;;1.20;;
70800;SDS011;59616;52.170;5.386;2023-03-05T08:25:17;8.80;;;1.33;;
70800;SDS011;59616;52.170;5.386;2023-03-05T08:27:45;3.92;;;1.02;;
70800;SDS011;59616;52.170;5.386;2023-03-05T08:30:14;3.30;;;1.15;;
70800;SDS011;59616;52.170;5.386;2023-03-05T08:32:42;6.68;;;1.33;;
70800;SDS011;59616;52.170;5.386;2023-03-05T08:35:09;3.90;;;0.90;;
70800;SDS011;59616;52.170;5.386;2023-03-05T08:37:36;2.15;;;0.90;;
70800;SDS011;59616;52.170;5.386;2023-03-05T08:40:04;4.65;;;1.35;;
70800;SDS011;59616;52.170;5.386;2023-03-05T08:42:31;5.18;;;1.20;;
70800;SDS011;59616;52.170;5.386;2023-03-05T08:44:58;4.75;;;1.17;;
70800;SDS011;59616;52.170;5.386;2023-03-05T08:47:25;5.28;;;1.40;;
70800;SDS011;59616;52.170;5.386;2023-03-05T08:49:53;5.00;;;1.60;;
70800;SDS011;59616;52.170;5.386;2023-03-05T08:52:22;2.83;;;1.05;;
70800;SDS011;59616;52.170;5.386;2023-03-05T08:54:49;5.15;;;1.48;;
70800;SDS011;59616;52.170;5.386;2023-03-05T08:57:16;4.55;;;1.42;;
70800;SDS011;59616;52.170;5.386;2023-03-05T08:59:43;6.78;;;1.30;;
70800;SDS011;59616;52.170;5.386;2023-03-05T09:04:37;4.50;;;1.50;;
70800;SDS011;59616;52.170;5.386;2023-03-05T09:07:05;4.97;;;1.50;;
70800;SDS011;59616;52.170;5.386;2023-03-05T09:09:32;6.38;;;1.67;;
70800;SDS011;59616;52.170;5.386;2023-03-05T09:11:59;6.78;;;1.70;;
70800;SDS011;59616;52.170;5.386;2023-03-05T09:14:26;5.32;;;1.40;;
70800;SDS011;59616;52.170;5.386;2023-03-05T09:16:54;2.40;;;1.30;;
70800;SDS011;59616;52.170;5.386;2023-03-05T09:19:22;4.90;;;1.50;;
70800;SDS011;59616;52.170;5.386;2023-03-05T09:21:49;5.80;;;1.25;;
70800;SDS011;59616;52.170;5.386;2023-03-05T09:24:17;4.10;;;1.45;;
70800;SDS011;59616;52.170;5.386;2023-03-05T09:26:44;4.38;;;1.42;;
70800;SDS011;59616;52.170;5.386;2023-03-05T09:29:11;7.75;;;1.63;;
70800;SDS011;59616;52.170;5.386;2023-03-05T09:31:38;6.47;;;1.90;;
70800;SDS011;59616;52.170;5.386;2023-03-05T09:34:05;5.47;;;1.42;;
70800;SDS011;59616;52.170;5.386;2023-03-05T09:36:34;5.38;;;1.77;;
70800;SDS011;59616;52.170;5.386;2023-03-05T09:39:01;6.57;;;1.48;;
70800;SDS011;59616;52.170;5.386;2023-03-05T09:46:35;3.03;;;1.25;;
70800;SDS011;59616;52.170;5.386;2023-03-05T09:51:37;2.15;;;1.20;;
70800;SDS011;59616;52.170;5.386;2023-03-05T09:54:14;4.03;;;1.30;;
70800;SDS011;59616;52.170;5.386;2023-03-05T09:56:44;6.40;;;1.60;;
70800;SDS011;59616;52.170;5.386;2023-03-05T10:01:43;4.90;;;1.42;;
70800;SDS011;59616;52.170;5.386;2023-03-05T10:04:21;6.68;;;1.58;;
70800;SDS011;59616;52.170;5.386;2023-03-05T10:09:27;6.07;;;1.30;;
70800;SDS011;59616;52.170;5.386;2023-03-05T10:11:58;6.72;;;1.40;;
70800;SDS011;59616;52.170;5.386;2023-03-05T10:14:28;5.95;;;1.50;;
70800;SDS011;59616;52.170;5.386;2023-03-05T10:17:04;3.75;;;1.20;;
70800;SDS011;59616;52.170;5.386;2023-03-05T10:19:46;6.25;;;1.35;;
70800;SDS011;59616;52.170;5.386;2023-03-05T10:22:17;7.03;;;1.60;;
70800;SDS011;59616;52.170;5.386;2023-03-05T10:27:19;8.50;;;1.20;;
70800;SDS011;59616;52.170;5.386;2023-03-05T10:30:04;4.88;;;1.55;;
70800;SDS011;59616;52.170;5.386;2023-03-05T10:37:54;4.93;;;1.10;;
70800;SDS011;59616;52.170;5.386;2023-03-05T10:40:29;2.80;;;0.85;;
70800;SDS011;59616;52.170;5.386;2023-03-05T10:45:42;3.50;;;0.90;;
70800;SDS011;59616;52.170;5.386;2023-03-05T10:50:44;5.32;;;1.00;;
70800;SDS011;59616;52.170;5.386;2023-03-05T10:53:34;1.98;;;0.93;;
70800;SDS011;59616;52.170;5.386;2023-03-05T10:56:03;3.05;;;1.15;;
70800;SDS011;59616;52.170;5.386;2023-03-05T10:58:31;2.83;;;0.90;;
70800;SDS011;59616;52.170;5.386;2023-03-05T11:01:32;5.50;;;1.00;;
70800;SDS011;59616;52.170;5.386;2023-03-05T11:08:52;3.15;;;0.88;;
70800;SDS011;59616;52.170;5.386;2023-03-05T11:11:20;3.90;;;1.00;;
70800;SDS011;59616;52.170;5.386;2023-03-05T11:13:57;2.45;;;1.00;;
70800;SDS011;59616;52.170;5.386;2023-03-05T11:16:26;3.45;;;1.27;;
70800;SDS011;59616;52.170;5.386;2023-03-05T11:21:39;3.35;;;1.05;;
70800;SDS011;59616;52.170;5.386;2023-03-05T11:24:14;2.30;;;0.75;;
70800;SDS011;59616;52.170;5.386;2023-03-05T11:26:51;1.85;;;0.73;;
70800;SDS011;59616;52.170;5.386;2023-03-05T11:29:23;6.75;;;0.95;;
70800;SDS011;59616;52.170;5.386;2023-03-05T11:31:50;3.65;;;1.10;;
70800;SDS011;59616;52.170;5.386;2023-03-05T11:39:20;2.20;;;0.60;;
70800;SDS011;59616;52.170;5.386;2023-03-05T11:41:49;6.82;;;1.05;;
70800;SDS011;59616;52.170;5.386;2023-03-05T11:44:19;2.35;;;0.70;;
70800;SDS011;59616;52.170;5.386;2023-03-05T11:46:49;2.20;;;0.70;;
70800;SDS011;59616;52.170;5.386;2023-03-05T11:49:17;1.80;;;0.65;;
70800;SDS011;59616;52.170;5.386;2023-03-05T11:51:56;5.85;;;0.93;;
70800;SDS011;59616;52.170;5.386;2023-03-05T11:54:28;1.83;;;0.50;;
70800;SDS011;59616;52.170;5.386;2023-03-05T11:56:57;4.30;;;1.30;;
70800;SDS011;59616;52.170;5.386;2023-03-05T11:59:30;4.93;;;0.90;;
70800;SDS011;59616;52.170;5.386;2023-03-05T12:02:00;3.83;;;1.10;;
70800;SDS011;59616;52.170;5.386;2023-03-05T12:04:27;2.50;;;0.98;;
70800;SDS011;59616;52.170;5.386;2023-03-05T12:06:56;7.22;;;1.55;;
70800;SDS011;59616;52.170;5.386;2023-03-05T12:09:40;3.97;;;1.10;;
70800;SDS011;59616;52.170;5.386;2023-03-05T12:12:17;4.70;;;1.35;;
70800;SDS011;59616;52.170;5.386;2023-03-05T12:14:50;3.85;;;1.45;;
70800;SDS011;59616;52.170;5.386;2023-03-05T12:22:20;5.47;;;1.75;;
70800;SDS011;59616;52.170;5.386;2023-03-05T12:24:48;4.88;;;1.00;;
70800;SDS011;59616;52.170;5.386;2023-03-05T12:27:32;3.08;;;1.13;;
70800;SDS011;59616;52.170;5.386;2023-03-05T12:30:00;2.63;;;0.95;;
70800;SDS011;59616;52.170;5.386;2023-03-05T12:47:37;4.75;;;0.90;;
70800;SDS011;59616;52.170;5.386;2023-03-05T12:50:48;4.05;;;1.00;;
70800;SDS011;59616;52.170;5.386;2023-03-05T13:00:48;4.68;;;1.00;;
70800;SDS011;59616;52.170;5.386;2023-03-05T13:03:19;2.33;;;0.80;;
70800;SDS011;59616;52.170;5.386;2023-03-05T13:05:49;5.22;;;0.98;;
70800;SDS011;59616;52.170;5.386;2023-03-05T13:08:21;3.33;;;1.05;;
70800;SDS011;59616;52.170;5.386;2023-03-05T13:10:59;4.85;;;1.27;;
70800;SDS011;59616;52.170;5.386;2023-03-05T13:13:27;3.35;;;1.15;;
70800;SDS011;59616;52.170;5.386;2023-03-05T13:15:55;5.57;;;1.10;;
70800;SDS011;59616;52.170;5.386;2023-03-05T13:18:24;2.58;;;0.95;;
70800;SDS011;59616;52.170;5.386;2023-03-05T13:21:01;4.68;;;1.27;;
70800;SDS011;59616;52.170;5.386;2023-03-05T13:23:29;2.97;;;0.82;;
70800;SDS011;59616;52.170;5.386;2023-03-05T13:28:28;3.28;;;1.17;;
70800;SDS011;59616;52.170;5.386;2023-03-05T13:30:56;4.30;;;1.05;;
70800;SDS011;59616;52.170;5.386;2023-03-05T13:33:28;2.63;;;0.90;;
70800;SDS011;59616;52.170;5.386;2023-03-05T13:35:55;3.85;;;1.00;;
70800;SDS011;59616;52.170;5.386;2023-03-05T13:40:59;6.80;;;1.20;;
70800;SDS011;59616;52.170;5.386;2023-03-05T13:43:28;7.03;;;1.20;;
70800;SDS011;59616;52.170;5.386;2023-03-05T13:45:55;4.57;;;1.38;;
70800;SDS011;59616;52.170;5.386;2023-03-05T13:48:24;3.47;;;1.20;;
70800;SDS011;59616;52.170;5.386;2023-03-05T13:50:52;3.67;;;1.40;;
70800;SDS011;59616;52.170;5.386;2023-03-05T13:53:27;4.85;;;1.33;;
70800;SDS011;59616;52.170;5.386;2023-03-05T13:55:59;5.57;;;1.50;;
70800;SDS011;59616;52.170;5.386;2023-03-05T14:03:49;3.35;;;1.50;;
70800;SDS011;59616;52.170;5.386;2023-03-05T14:06:20;2.88;;;1.20;;
70800;SDS011;59616;52.170;5.386;2023-03-05T14:08:51;6.00;;;1.50;;
70800;SDS011;59616;52.170;5.386;2023-03-05T14:11:19;4.03;;;1.40;;
70800;SDS011;59616;52.170;5.386;2023-03-05T14:13:46;2.72;;;1.20;;
70800;SDS011;59616;52.170;5.386;2023-03-05T14:16:22;3.35;;;1.10;;
70800;SDS011;59616;52.170;5.386;2023-03-05T14:18:57;2.53;;;0.90;;
70800;SDS011;59616;52.170;5.386;2023-03-05T14:21:24;6.05;;;1.45;;
70800;SDS011;59616;52.170;5.386;2023-03-05T14:23:52;6.45;;;1.50;;
70800;SDS011;59616;52.170;5.386;2023-03-05T14:26:33;3.00;;;1.05;;
70800;SDS011;59616;52.170;5.386;2023-03-05T14:34:16;4.38;;;0.90;;
70800;SDS011;59616;52.170;5.386;2023-03-05T14:36:46;3.70;;;1.10;;
70800;SDS011;59616;52.170;5.386;2023-03-05T14:39:24;4.25;;;1.13;;
70800;SDS011;59616;52.170;5.386;2023-03-05T14:41:52;5.10;;;1.23;;
70800;SDS011;59616;52.170;5.386;2023-03-05T14:44:19;3.40;;;1.33;;
70800;SDS011;59616;52.170;5.386;2023-03-05T14:46:50;6.50;;;1.63;;
70800;SDS011;59616;52.170;5.386;2023-03-05T14:49:17;5.57;;;1.50;;
70800;SDS011;59616;52.170;5.386;2023-03-05T14:51:44;5.40;;;1.35;;
70800;SDS011;59616;52.170;5.386;2023-03-05T14:54:19;3.75;;;1.63;;
70800;SDS011;59616;52.170;5.386;2023-03-05T14:56:47;7.63;;;2.30;;
70800;SDS011;59616;52.170;5.386;2023-03-05T14:59:16;4.10;;;1.60;;
70800;SDS011;59616;52.170;5.386;2023-03-05T15:01:43;4.80;;;2.10;;
70800;SDS011;59616;52.170;5.386;2023-03-05T15:04:10;4.45;;;1.40;;
70800;SDS011;59616;52.170;5.386;2023-03-05T15:06:38;3.55;;;1.40;;
70800;SDS011;59616;52.170;5.386;2023-03-05T15:09:06;3.97;;;1.45;;
70800;SDS011;59616;52.170;5.386;2023-03-05T15:11:33;5.80;;;1.40;;
70800;SDS011;59616;52.170;5.386;2023-03-05T15:14:00;6.78;;;1.70;;
70800;SDS011;59616;52.170;5.386;2023-03-05T15:16:27;5.70;;;1.70;;
70800;SDS011;59616;52.170;5.386;2023-03-05T15:18:58;4.72;;;1.35;;
70800;SDS011;59616;52.170;5.386;2023-03-05T15:21:25;3.08;;;1.40;;
70800;SDS011;59616;52.170;5.386;2023-03-05T15:23:52;5.38;;;1.60;;
70800;SDS011;59616;52.170;5.386;2023-03-05T15:26:19;5.45;;;1.55;;
70800;SDS011;59616;52.170;5.386;2023-03-05T15:28:46;4.47;;;1.60;;
70800;SDS011;59616;52.170;5.386;2023-03-05T15:31:15;4.40;;;1.40;;
70800;SDS011;59616;52.170;5.386;2023-03-05T15:33:43;7.15;;;1.98;;
70800;SDS011;59616;52.170;5.386;2023-03-05T15:36:10;5.70;;;1.73;;
70800;SDS011;59616;52.170;5.386;2023-03-05T15:38:38;5.53;;;2.45;;
70800;SDS011;59616;52.170;5.386;2023-03-05T15:41:06;6.45;;;1.77;;
70800;SDS011;59616;52.170;5.386;2023-03-05T15:43:33;7.35;;;1.67;;
70800;SDS011;59616;52.170;5.386;2023-03-05T15:46:03;6.75;;;1.98;;
70800;SDS011;59616;52.170;5.386;2023-03-05T15:48:30;4.57;;;1.40;;
70800;SDS011;59616;52.170;5.386;2023-03-05T15:50:57;5.88;;;1.50;;
70800;SDS011;59616;52.170;5.386;2023-03-05T15:53:24;4.78;;;1.55;;
70800;SDS011;59616;52.170;5.386;2023-03-05T15:55:51;3.28;;;1.30;;
70800;SDS011;59616;52.170;5.386;2023-03-05T15:58:18;3.75;;;1.35;;
70800;SDS011;59616;52.170;5.386;2023-03-05T16:00:46;3.45;;;1.10;;
70800;SDS011;59616;52.170;5.386;2023-03-05T16:03:14;5.63;;;1.35;;
70800;SDS011;59616;52.170;5.386;2023-03-05T16:05:41;3.47;;;1.30;;
70800;SDS011;59616;52.170;5.386;2023-03-05T16:08:08;5.72;;;1.90;;
70800;SDS011;59616;52.170;5.386;2023-03-05T16:10:35;7.45;;;2.00;;
70800;SDS011;59616;52.170;5.386;2023-03-05T16:13:09;4.65;;;1.58;;
70800;SDS011;59616;52.170;5.386;2023-03-05T16:15:37;5.32;;;1.50;;
70800;SDS011;59616;52.170;5.386;2023-03-05T16:18:06;6.75;;;1.83;;
70800;SDS011;59616;52.170;5.386;2023-03-05T16:20:35;9.07;;;2.10;;
70800;SDS011;59616;52.170;5.386;2023-03-05T16:23:03;5.90;;;1.88;;
70800;SDS011;59616;52.170;5.386;2023-03-05T16:25:31;5.72;;;1.83;;
70800;SDS011;59616;52.170;5.386;2023-03-05T16:27:58;8.18;;;1.70;;
70800;SDS011;59616;52.170;5.386;2023-03-05T16:30:25;8.35;;;2.40;;
70800;SDS011;59616;52.170;5.386;2023-03-05T16:32:52;5.60;;;1.88;;
70800;SDS011;59616;52.170;5.386;2023-03-05T16:35:19;7.75;;;2.40;;
70800;SDS011;59616;52.170;5.386;2023-03-05T16:37:47;5.70;;;1.75;;
70800;SDS011;59616;52.170;5.386;2023-03-05T16:40:14;5.85;;;1.80;;